Terminal Aerodrome Forecast
Issued by NWS

Home | Current Version | Previous Version | Text Only | Print | Product List | Glossary On
Versions: 1 2 3 4 5 6 7 8 9 10 11 12 13 14 15
000
FTUS43 KAPX 222100 AAA
TAFTVC
TAF AMD
KTVC 222101Z 2221/2318 22011G18KT P6SM SCT060
      TEMPO 2221/2224 BKN040
     FM230100 23011KT P6SM SCT050
     FM230400 30011G16KT P6SM OVC030
     FM231100 35011G19KT P6SM BKN050
     FM231400 36011G20KT P6SM SKC=

USA.gov is the U.S. government's official web portal to all federal, state and local government web resources and services.